sensor_id;sensor_type;location;lat;lon;timestamp;temperature;humidity
6930;DHT22;3504;52.616;13.238;2023-03-30T00:04:17;9.93;74.57
6930;DHT22;3504;52.616;13.238;2023-03-30T00:09:18;9.87;75.06
6930;DHT22;3504;52.616;13.238;2023-03-30T00:14:21;9.90;75.45
6930;DHT22;3504;52.616;13.238;2023-03-30T00:19:28;9.85;76.01
6930;DHT22;3504;52.616;13.238;2023-03-30T00:24:29;9.79;75.87
6930;DHT22;3504;52.616;13.238;2023-03-30T00:29:29;9.78;76.65
6930;DHT22;3504;52.616;13.238;2023-03-30T00:34:30;9.72;76.84
6930;DHT22;3504;52.616;13.238;2023-03-30T00:39:31;9.78;76.72
6930;DHT22;3504;52.616;13.238;2023-03-30T00:45:26;9.67;77.51
6930;DHT22;3504;52.616;13.238;2023-03-30T00:50:59;9.62;77.83
6930;DHT22;3504;52.616;13.238;2023-03-30T00:56:02;9.67;77.65
6930;DHT22;3504;52.616;13.238;2023-03-30T01:01:07;9.63;78.24
6930;DHT22;3504;52.616;13.238;2023-03-30T01:06:10;9.63;78.20
6930;DHT22;3504;52.616;13.238;2023-03-30T01:11:11;9.63;78.33
6930;DHT22;3504;52.616;13.238;2023-03-30T01:39:10;9.49;80.62
6930;DHT22;3504;52.616;13.238;2023-03-30T01:50:26;9.49;80.36
6930;DHT22;3504;52.616;13.238;2023-03-30T01:55:40;9.51;80.10
6930;DHT22;3504;52.616;13.238;2023-03-30T02:00:44;9.52;80.39
6930;DHT22;3504;52.616;13.238;2023-03-30T02:05:51;9.51;80.53
6930;DHT22;3504;52.616;13.238;2023-03-30T02:10:53;9.52;80.23
6930;DHT22;3504;52.616;13.238;2023-03-30T02:16:00;9.51;80.59
6930;DHT22;3504;52.616;13.238;2023-03-30T02:21:02;9.49;80.55
6930;DHT22;3504;52.616;13.238;2023-03-30T02:26:03;9.48;80.96
6930;DHT22;3504;52.616;13.238;2023-03-30T02:31:11;9.48;81.10
6930;DHT22;3504;52.616;13.238;2023-03-30T02:42:28;9.41;81.26
6930;DHT22;3504;52.616;13.238;2023-03-30T02:53:31;9.41;81.03
6930;DHT22;3504;52.616;13.238;2023-03-30T02:58:58;9.38;81.01
6930;DHT22;3504;52.616;13.238;2023-03-30T03:04:02;9.35;81.13
6930;DHT22;3504;52.616;13.238;2023-03-30T03:09:12;9.35;81.28
6930;DHT22;3504;52.616;13.238;2023-03-30T03:14:12;9.34;81.25
6930;DHT22;3504;52.616;13.238;2023-03-30T03:19:13;9.31;81.37
6930;DHT22;3504;52.616;13.238;2023-03-30T03:24:15;9.31;81.12
6930;DHT22;3504;52.616;13.238;2023-03-30T03:29:35;9.36;80.74
6930;DHT22;3504;52.616;13.238;2023-03-30T03:34:37;9.38;80.69
6930;DHT22;3504;52.616;13.238;2023-03-30T03:39:39;9.38;80.54
6930;DHT22;3504;52.616;13.238;2023-03-30T03:44:44;9.36;80.78
6930;DHT22;3504;52.616;13.238;2023-03-30T03:49:45;9.38;80.75
6930;DHT22;3504;52.616;13.238;2023-03-30T03:54:45;9.39;80.71
6930;DHT22;3504;52.616;13.238;2023-03-30T03:59:46;9.41;80.61
6930;DHT22;3504;52.616;13.238;2023-03-30T04:04:47;9.45;80.57
6930;DHT22;3504;52.616;13.238;2023-03-30T04:09:48;9.46;80.66
6930;DHT22;3504;52.616;13.238;2023-03-30T04:15:18;9.48;80.47
6930;DHT22;3504;52.616;13.238;2023-03-30T04:20:30;9.51;80.48
6930;DHT22;3504;52.616;13.238;2023-03-30T04:25:49;9.53;80.52
6930;DHT22;3504;52.616;13.238;2023-03-30T04:31:09;9.52;80.79
6930;DHT22;3504;52.616;13.238;2023-03-30T04:36:41;9.55;80.58
6930;DHT22;3504;52.616;13.238;2023-03-30T04:41:58;9.53;80.61
6930;DHT22;3504;52.616;13.238;2023-03-30T04:47:12;9.52;80.59
6930;DHT22;3504;52.616;13.238;2023-03-30T04:52:30;9.56;80.63
6930;DHT22;3504;52.616;13.238;2023-03-30T04:57:59;9.55;80.68
6930;DHT22;3504;52.616;13.238;2023-03-30T05:03:12;9.59;80.55
6930;DHT22;3504;52.616;13.238;2023-03-30T05:08:29;9.61;80.56
6930;DHT22;3504;52.616;13.238;2023-03-30T05:13:51;9.62;80.71
6930;DHT22;3504;52.616;13.238;2023-03-30T05:18:59;9.62;80.64
6930;DHT22;3504;52.616;13.238;2023-03-30T05:24:12;9.66;80.53
6930;DHT22;3504;52.616;13.238;2023-03-30T05:29:35;9.72;80.36
6930;DHT22;3504;52.616;13.238;2023-03-30T05:34:50;9.69;80.37
6930;DHT22;3504;52.616;13.238;2023-03-30T05:40:00;9.72;80.37
6930;DHT22;3504;52.616;13.238;2023-03-30T05:45:14;9.74;80.34
6930;DHT22;3504;52.616;13.238;2023-03-30T05:50:40;9.73;80.25
6930;DHT22;3504;52.616;13.238;2023-03-30T05:55:49;9.74;80.22
6930;DHT22;3504;52.616;13.238;2023-03-30T06:01:08;9.76;80.21
6930;DHT22;3504;52.616;13.238;2023-03-30T06:06:13;9.83;80.08
6930;DHT22;3504;52.616;13.238;2023-03-30T06:11:15;9.85;80.02
6930;DHT22;3504;52.616;13.238;2023-03-30T06:16:23;9.92;79.77
6930;DHT22;3504;52.616;13.238;2023-03-30T06:21:25;9.99;79.67
6930;DHT22;3504;52.616;13.238;2023-03-30T06:26:48;10.10;79.50
6930;DHT22;3504;52.616;13.238;2023-03-30T06:31:49;10.16;79.02
6930;DHT22;3504;52.616;13.238;2023-03-30T06:37:26;10.27;78.72
6930;DHT22;3504;52.616;13.238;2023-03-30T06:42:26;10.40;78.68
6930;DHT22;3504;52.616;13.238;2023-03-30T06:47:50;10.46;78.10
6930;DHT22;3504;52.616;13.238;2023-03-30T06:52:51;10.51;78.12
6930;DHT22;3504;52.616;13.238;2023-03-30T06:57:53;10.61;78.00
6930;DHT22;3504;52.616;13.238;2023-03-30T07:02:54;10.69;77.80
6930;DHT22;3504;52.616;13.238;2023-03-30T07:08:01;10.68;77.53
6930;DHT22;3504;52.616;13.238;2023-03-30T07:13:02;10.79;77.74
6930;DHT22;3504;52.616;13.238;2023-03-30T07:18:05;11.03;77.27
6930;DHT22;3504;52.616;13.238;2023-03-30T07:23:05;11.17;76.80
6930;DHT22;3504;52.616;13.238;2023-03-30T07:28:07;11.35;76.21
6930;DHT22;3504;52.616;13.238;2023-03-30T07:33:08;11.53;75.75
6930;DHT22;3504;52.616;13.238;2023-03-30T07:38:08;11.88;75.66
6930;DHT22;3504;52.616;13.238;2023-03-30T07:43:14;12.24;73.77
6930;DHT22;3504;52.616;13.238;2023-03-30T07:48:15;12.42;73.78
6930;DHT22;3504;52.616;13.238;2023-03-30T07:53:15;12.40;73.16
6930;DHT22;3504;52.616;13.238;2023-03-30T07:58:21;12.63;72.29
6930;DHT22;3504;52.616;13.238;2023-03-30T08:03:22;12.96;71.98
6930;DHT22;3504;52.616;13.238;2023-03-30T08:08:24;13.24;70.87
6930;DHT22;3504;52.616;13.238;2023-03-30T08:13:25;13.41;69.44
6930;DHT22;3504;52.616;13.238;2023-03-30T08:18:26;13.65;68.79
6930;DHT22;3504;52.616;13.238;2023-03-30T08:23:27;13.95;67.98
6930;DHT22;3504;52.616;13.238;2023-03-30T08:28:27;14.14;67.62
6930;DHT22;3504;52.616;13.238;2023-03-30T08:33:28;14.41;67.20
6930;DHT22;3504;52.616;13.238;2023-03-30T08:38:29;14.57;65.66
6930;DHT22;3504;52.616;13.238;2023-03-30T08:49:42;15.22;65.11
6930;DHT22;3504;52.616;13.238;2023-03-30T08:54:43;15.44;64.48
6930;DHT22;3504;52.616;13.238;2023-03-30T09:05:25;15.81;62.26
6930;DHT22;3504;52.616;13.238;2023-03-30T09:10:30;16.02;62.89
6930;DHT22;3504;52.616;13.238;2023-03-30T09:15:59;16.12;61.94
6930;DHT22;3504;52.616;13.238;2023-03-30T09:21:04;16.12;60.68
6930;DHT22;3504;52.616;13.238;2023-03-30T09:26:34;16.11;59.26
6930;DHT22;3504;52.616;13.238;2023-03-30T09:31:44;16.17;60.10
6930;DHT22;3504;52.616;13.238;2023-03-30T09:37:11;16.24;59.86
6930;DHT22;3504;52.616;13.238;2023-03-30T09:42:44;16.26;58.76
6930;DHT22;3504;52.616;13.238;2023-03-30T09:47:46;16.46;59.46
6930;DHT22;3504;52.616;13.238;2023-03-30T09:52:59;16.59;58.76
6930;DHT22;3504;52.616;13.238;2023-03-30T09:58:17;16.57;58.51
6930;DHT22;3504;52.616;13.238;2023-03-30T10:03:21;16.56;58.65
6930;DHT22;3504;52.616;13.238;2023-03-30T10:08:22;16.60;59.66
6930;DHT22;3504;52.616;13.238;2023-03-30T10:13:30;16.72;58.34
6930;DHT22;3504;52.616;13.238;2023-03-30T10:18:43;16.76;59.36
6930;DHT22;3504;52.616;13.238;2023-03-30T10:23:46;16.80;59.42
6930;DHT22;3504;52.616;13.238;2023-03-30T10:29:04;16.94;59.51
6930;DHT22;3504;52.616;13.238;2023-03-30T10:34:22;16.89;59.05
6930;DHT22;3504;52.616;13.238;2023-03-30T10:39:30;16.86;59.25
6930;DHT22;3504;52.616;13.238;2023-03-30T10:44:36;16.97;59.79
6930;DHT22;3504;52.616;13.238;2023-03-30T10:49:57;17.13;58.82
6930;DHT22;3504;52.616;13.238;2023-03-30T10:55:24;17.38;59.21
6930;DHT22;3504;52.616;13.238;2023-03-30T11:06:14;17.65;58.12
6930;DHT22;3504;52.616;13.238;2023-03-30T11:11:32;17.82;56.94
6930;DHT22;3504;52.616;13.238;2023-03-30T11:16:56;17.78;57.35
6930;DHT22;3504;52.616;13.238;2023-03-30T11:22:23;17.72;56.79
6930;DHT22;3504;52.616;13.238;2023-03-30T11:27:30;17.74;56.79
6930;DHT22;3504;52.616;13.238;2023-03-30T11:43:08;19.10;55.61
6930;DHT22;3504;52.616;13.238;2023-03-30T11:53:56;19.19;54.65
6930;DHT22;3504;52.616;13.238;2023-03-30T11:59:13;19.32;54.60
6930;DHT22;3504;52.616;13.238;2023-03-30T12:04:27;19.67;53.96
6930;DHT22;3504;52.616;13.238;2023-03-30T12:09:55;19.60;54.06
6930;DHT22;3504;52.616;13.238;2023-03-30T12:15:01;19.73;53.79
6930;DHT22;3504;52.616;13.238;2023-03-30T12:25:43;19.38;54.80
6930;DHT22;3504;52.616;13.238;2023-03-30T12:30:56;19.40;54.85
6930;DHT22;3504;52.616;13.238;2023-03-30T12:41:26;19.23;54.61
6930;DHT22;3504;52.616;13.238;2023-03-30T12:46:41;19.30;55.10
6930;DHT22;3504;52.616;13.238;2023-03-30T13:08:36;19.23;53.45
6930;DHT22;3504;52.616;13.238;2023-03-30T13:13:59;19.25;52.79
6930;DHT22;3504;52.616;13.238;2023-03-30T13:19:25;18.89;54.55
6930;DHT22;3504;52.616;13.238;2023-03-30T13:29:39;18.23;56.28
6930;DHT22;3504;52.616;13.238;2023-03-30T13:40:18;16.46;62.36
6930;DHT22;3504;52.616;13.238;2023-03-30T13:45:31;15.26;68.95
6930;DHT22;3504;52.616;13.238;2023-03-30T13:50:33;14.47;72.37
6930;DHT22;3504;52.616;13.238;2023-03-30T13:55:41;13.86;74.11
6930;DHT22;3504;52.616;13.238;2023-03-30T14:00:49;13.75;74.93
6930;DHT22;3504;52.616;13.238;2023-03-30T14:05:51;13.61;75.53
6930;DHT22;3504;52.616;13.238;2023-03-30T14:10:51;13.46;76.58
6930;DHT22;3504;52.616;13.238;2023-03-30T14:15:53;13.32;76.67
6930;DHT22;3504;52.616;13.238;2023-03-30T14:20:57;13.15;77.70
6930;DHT22;3504;52.616;13.238;2023-03-30T14:26:13;13.10;78.27
6930;DHT22;3504;52.616;13.238;2023-03-30T14:31:19;13.06;78.55
6930;DHT22;3504;52.616;13.238;2023-03-30T14:36:21;13.10;77.92
6930;DHT22;3504;52.616;13.238;2023-03-30T14:41:25;13.14;78.09
6930;DHT22;3504;52.616;13.238;2023-03-30T14:51:41;13.10;78.57
6930;DHT22;3504;52.616;13.238;2023-03-30T14:56:44;13.07;78.91
6930;DHT22;3504;52.616;13.238;2023-03-30T15:01:45;13.10;79.10
6930;DHT22;3504;52.616;13.238;2023-03-30T15:06:47;13.07;79.46
6930;DHT22;3504;52.616;13.238;2023-03-30T15:12:00;13.08;80.31
6930;DHT22;3504;52.616;13.238;2023-03-30T15:17:18;13.08;80.75
6930;DHT22;3504;52.616;13.238;2023-03-30T15:22:29;13.15;80.99
6930;DHT22;3504;52.616;13.238;2023-03-30T15:27:35;13.15;81.06
6930;DHT22;3504;52.616;13.238;2023-03-30T15:32:39;13.15;80.96
6930;DHT22;3504;52.616;13.238;2023-03-30T15:38:01;13.10;81.37
6930;DHT22;3504;52.616;13.238;2023-03-30T15:43:24;13.11;81.61
6930;DHT22;3504;52.616;13.238;2023-03-30T15:48:45;13.20;80.88
6930;DHT22;3504;52.616;13.238;2023-03-30T15:53:57;13.24;80.89
6930;DHT22;3504;52.616;13.238;2023-03-30T15:58:59;13.18;80.43
6930;DHT22;3504;52.616;13.238;2023-03-30T16:04:00;13.14;80.43
6930;DHT22;3504;52.616;13.238;2023-03-30T16:09:01;13.07;80.64
6930;DHT22;3504;52.616;13.238;2023-03-30T16:14:04;13.10;80.73
6930;DHT22;3504;52.616;13.238;2023-03-30T16:19:16;13.14;80.74
6930;DHT22;3504;52.616;13.238;2023-03-30T16:24:16;13.25;80.73
6930;DHT22;3504;52.616;13.238;2023-03-30T16:29:20;13.27;80.28
6930;DHT22;3504;52.616;13.238;2023-03-30T16:34:21;13.18;80.15
6930;DHT22;3504;52.616;13.238;2023-03-30T16:39:23;13.12;80.04
6930;DHT22;3504;52.616;13.238;2023-03-30T16:44:24;13.10;80.19
6930;DHT22;3504;52.616;13.238;2023-03-30T16:49:24;13.17;80.10
6930;DHT22;3504;52.616;13.238;2023-03-30T16:54:25;13.18;80.23
6930;DHT22;3504;52.616;13.238;2023-03-30T16:59:28;13.18;79.97
6930;DHT22;3504;52.616;13.238;2023-03-30T17:04:29;13.11;79.84
6930;DHT22;3504;52.616;13.238;2023-03-30T17:09:30;13.07;79.95
6930;DHT22;3504;52.616;13.238;2023-03-30T17:14:30;12.97;79.91
6930;DHT22;3504;52.616;13.238;2023-03-30T17:19:31;12.93;79.93
6930;DHT22;3504;52.616;13.238;2023-03-30T17:24:31;12.80;79.97
6930;DHT22;3504;52.616;13.238;2023-03-30T17:29:32;12.73;80.04
6930;DHT22;3504;52.616;13.238;2023-03-30T17:34:32;12.60;80.34
6930;DHT22;3504;52.616;13.238;2023-03-30T17:39:33;12.49;80.49
6930;DHT22;3504;52.616;13.238;2023-03-30T17:44:33;12.46;80.42
6930;DHT22;3504;52.616;13.238;2023-03-30T17:49:38;12.40;80.43
6930;DHT22;3504;52.616;13.238;2023-03-30T17:54:39;12.36;80.29
6930;DHT22;3504;52.616;13.238;2023-03-30T17:59:40;12.25;80.77
6930;DHT22;3504;52.616;13.238;2023-03-30T18:04:40;12.17;81.15
6930;DHT22;3504;52.616;13.238;2023-03-30T18:09:41;12.12;81.24
6930;DHT22;3504;52.616;13.238;2023-03-30T18:14:41;12.01;81.12
6930;DHT22;3504;52.616;13.238;2023-03-30T18:19:43;11.95;81.61
6930;DHT22;3504;52.616;13.238;2023-03-30T18:24:43;11.92;81.64
6930;DHT22;3504;52.616;13.238;2023-03-30T18:29:44;11.85;81.72
6930;DHT22;3504;52.616;13.238;2023-03-30T18:34:45;11.82;81.77
6930;DHT22;3504;52.616;13.238;2023-03-30T18:39:45;11.81;81.82
6930;DHT22;3504;52.616;13.238;2023-03-30T18:44:46;11.79;82.11
6930;DHT22;3504;52.616;13.238;2023-03-30T18:49:46;11.79;82.37
6930;DHT22;3504;52.616;13.238;2023-03-30T18:54:47;11.82;82.30
6930;DHT22;3504;52.616;13.238;2023-03-30T18:59:47;11.68;83.04
6930;DHT22;3504;52.616;13.238;2023-03-30T19:04:48;11.33;82.44
6930;DHT22;3504;52.616;13.238;2023-03-30T19:09:49;11.06;82.95
6930;DHT22;3504;52.616;13.238;2023-03-30T19:14:50;10.79;83.28
6930;DHT22;3504;52.616;13.238;2023-03-30T19:19:50;10.65;84.08
6930;DHT22;3504;52.616;13.238;2023-03-30T19:24:51;10.55;83.62
6930;DHT22;3504;52.616;13.238;2023-03-30T19:29:51;10.49;84.03
6930;DHT22;3504;52.616;13.238;2023-03-30T19:34:52;10.48;84.00
6930;DHT22;3504;52.616;13.238;2023-03-30T19:39:55;10.41;84.10
6930;DHT22;3504;52.616;13.238;2023-03-30T19:44:56;10.37;83.71
6930;DHT22;3504;52.616;13.238;2023-03-30T19:50:01;10.41;83.50
6930;DHT22;3504;52.616;13.238;2023-03-30T19:55:01;10.49;83.45
6930;DHT22;3504;52.616;13.238;2023-03-30T20:00:05;10.52;83.10
6930;DHT22;3504;52.616;13.238;2023-03-30T20:05:12;10.45;83.22
6930;DHT22;3504;52.616;13.238;2023-03-30T20:10:20;10.42;82.86
6930;DHT22;3504;52.616;13.238;2023-03-30T20:15:23;10.38;82.75
6930;DHT22;3504;52.616;13.238;2023-03-30T20:20:25;10.30;83.02
6930;DHT22;3504;52.616;13.238;2023-03-30T20:25:26;10.33;83.27
6930;DHT22;3504;52.616;13.238;2023-03-30T20:30:26;10.35;83.15
6930;DHT22;3504;52.616;13.238;2023-03-30T20:35:27;10.31;83.50
6930;DHT22;3504;52.616;13.238;2023-03-30T20:40:27;10.23;83.36
6930;DHT22;3504;52.616;13.238;2023-03-30T20:45:30;10.12;83.56
6930;DHT22;3504;52.616;13.238;2023-03-30T20:50:31;10.13;83.44
6930;DHT22;3504;52.616;13.238;2023-03-30T20:55:33;10.12;83.10
6930;DHT22;3504;52.616;13.238;2023-03-30T21:00:33;10.09;83.30
6930;DHT22;3504;52.616;13.238;2023-03-30T21:05:34;10.06;83.25
6930;DHT22;3504;52.616;13.238;2023-03-30T21:10:34;10.04;83.54
6930;DHT22;3504;52.616;13.238;2023-03-30T21:15:35;10.03;83.76
6930;DHT22;3504;52.616;13.238;2023-03-30T21:20:35;10.04;83.60
6930;DHT22;3504;52.616;13.238;2023-03-30T21:25:36;10.02;83.51
6930;DHT22;3504;52.616;13.238;2023-03-30T21:30:36;10.02;83.63
6930;DHT22;3504;52.616;13.238;2023-03-30T21:35:37;10.00;83.96
6930;DHT22;3504;52.616;13.238;2023-03-30T21:40:37;9.97;84.11
6930;DHT22;3504;52.616;13.238;2023-03-30T21:45:38;10.00;84.32
6930;DHT22;3504;52.616;13.238;2023-03-30T21:50:38;10.02;84.34
6930;DHT22;3504;52.616;13.238;2023-03-30T21:55:39;10.03;84.27
6930;DHT22;3504;52.616;13.238;2023-03-30T22:00:43;10.07;84.49
6930;DHT22;3504;52.616;13.238;2023-03-30T22:05:45;10.07;84.51
6930;DHT22;3504;52.616;13.238;2023-03-30T22:10:45;10.09;84.69
6930;DHT22;3504;52.616;13.238;2023-03-30T22:21:02;10.10;84.94
6930;DHT22;3504;52.616;13.238;2023-03-30T22:26:02;10.07;85.14
6930;DHT22;3504;52.616;13.238;2023-03-30T22:31:08;10.12;84.95
6930;DHT22;3504;52.616;13.238;2023-03-30T22:36:25;10.14;84.78
6930;DHT22;3504;52.616;13.238;2023-03-30T22:41:26;10.13;84.73
6930;DHT22;3504;52.616;13.238;2023-03-30T22:46:26;10.16;84.60
6930;DHT22;3504;52.616;13.238;2023-03-30T22:51:27;10.14;84.70
6930;DHT22;3504;52.616;13.238;2023-03-30T22:56:28;10.14;84.44
6930;DHT22;3504;52.616;13.238;2023-03-30T23:01:29;10.14;84.47
6930;DHT22;3504;52.616;13.238;2023-03-30T23:06:32;10.14;84.54
6930;DHT22;3504;52.616;13.238;2023-03-30T23:11:35;10.13;84.50
6930;DHT22;3504;52.616;13.238;2023-03-30T23:16:36;10.13;84.70
6930;DHT22;3504;52.616;13.238;2023-03-30T23:21:37;10.09;84.94
6930;DHT22;3504;52.616;13.238;2023-03-30T23:26:37;10.09;84.70
6930;DHT22;3504;52.616;13.238;2023-03-30T23:31:38;10.06;84.44
6930;DHT22;3504;52.616;13.238;2023-03-30T23:36:38;10.06;84.33
6930;DHT22;3504;52.616;13.238;2023-03-30T23:41:39;10.04;84.31
6930;DHT22;3504;52.616;13.238;2023-03-30T23:46:39;10.04;84.32
6930;DHT22;3504;52.616;13.238;2023-03-30T23:51:40;10.03;84.16
6930;DHT22;3504;52.616;13.238;2023-03-30T23:56:42;10.00;84.59
